Time;durP1;ratioP1;P1;durP2;ratioP2;P2;SDS_P1;SDS_P2;PMS_P1;PMS_P2;Temp;Humidity;BMP_temperature;BMP_pressure;BME280_temperature;BME280_humidity;BME280_pressure;Samples;Min_cycle;Max_cycle;Signal;HPM_P1;HPM_P2
2022/10/28 05:31:40;;;;;;;17.45;7.32;;;17.00;83.40;;;;;;4790898;29;20092;-76
2022/10/28 05:34:05;;;;;;;18.92;6.50;;;17.00;83.20;;;;;;4808251;29;20123;-80
2022/10/28 05:36:31;;;;;;;22.90;6.78;;;17.00;83.30;;;;;;4794710;29;20082;-80
2022/10/28 05:38:57;;;;;;;24.50;8.38;;;17.10;83.60;;;;;;4810351;29;20057;-80
2022/10/28 05:41:23;;;;;;;17.27;6.53;;;17.10;83.50;;;;;;4810272;29;20490;-78
2022/10/28 05:43:49;;;;;;;15.82;6.15;;;17.10;83.40;;;;;;4810123;29;20047;-78
2022/10/28 05:46:15;;;;;;;19.20;6.70;;;17.10;83.30;;;;;;4809793;29;20051;-75
2022/10/28 05:48:41;;;;;;;13.10;5.50;;;17.10;83.20;;;;;;4810374;29;20054;-77
2022/10/28 05:51:06;;;;;;;20.15;6.90;;;17.10;83.20;;;;;;4809969;29;20137;-77
2022/10/28 05:53:32;;;;;;;18.10;7.32;;;17.20;83.40;;;;;;4809401;29;20058;-75
2022/10/28 05:55:58;;;;;;;18.48;7.88;;;17.20;83.30;;;;;;4810104;29;20360;-77
2022/10/28 05:58:23;;;;;;;14.75;7.55;;;17.20;82.90;;;;;;4809408;29;20066;-78
2022/10/28 06:00:49;;;;;;;18.95;8.55;;;17.20;83.30;;;;;;4810319;29;20174;-77
2022/10/28 06:03:15;;;;;;;23.45;8.73;;;17.20;82.60;;;;;;4809394;29;20046;-77
2022/10/28 06:05:44;;;;;;;21.77;9.00;;;17.20;82.50;;;;;;4809360;29;20074;-78
2022/10/28 06:08:11;;;;;;;22.65;8.82;;;17.20;82.20;;;;;;4793531;29;20094;-77
2022/10/28 06:10:37;;;;;;;20.15;8.98;;;17.20;82.00;;;;;;4809433;29;20476;-75
2022/10/28 06:13:04;;;;;;;26.13;8.40;;;17.20;81.90;;;;;;4794229;29;20062;-75
2022/10/28 06:15:30;;;;;;;16.48;7.47;;;17.20;81.80;;;;;;4809723;29;20061;-75
2022/10/28 06:17:55;;;;;;;15.85;7.03;;;17.20;81.60;;;;;;4808994;29;20201;-76
2022/10/28 06:20:21;;;;;;;17.48;7.53;;;17.20;81.60;;;;;;4809263;29;20055;-75
2022/10/28 06:22:52;;;;;;;13.10;7.55;;;17.20;81.50;;;;;;4809760;29;20444;-75
2022/10/28 06:25:19;;;;;;;13.02;6.88;;;17.20;81.40;;;;;;4809440;29;20058;-76
2022/10/28 06:27:45;;;;;;;14.10;6.80;;;17.20;81.40;;;;;;4808945;29;20123;-75
2022/10/28 06:30:11;;;;;;;13.70;7.47;;;17.20;81.30;;;;;;4800456;29;20062;-74
2022/10/28 06:32:37;;;;;;;13.15;7.28;;;17.30;81.30;;;;;;4827155;29;20075;-75
2022/10/28 06:35:02;;;;;;;13.60;7.30;;;17.30;81.30;;;;;;4827483;29;20050;-76
2022/10/28 06:37:28;;;;;;;15.82;7.90;;;17.30;81.20;;;;;;4811739;29;20054;-75
2022/10/28 06:39:55;;;;;;;8.13;5.93;;;17.30;81.20;;;;;;4827172;29;20429;-75
2022/10/28 06:42:20;;;;;;;14.07;6.70;;;17.30;81.20;;;;;;4826732;29;20061;-76
2022/10/28 06:44:46;;;;;;;14.48;6.80;;;17.30;81.10;;;;;;4827088;29;20054;-75
2022/10/28 06:47:12;;;;;;;14.63;7.07;;;17.20;81.10;;;;;;4827588;29;20046;-75
2022/10/28 06:49:37;;;;;;;11.60;6.22;;;17.30;81.10;;;;;;4827343;29;20138;-75
2022/10/28 06:52:03;;;;;;;11.02;6.15;;;17.20;81.00;;;;;;4796779;29;20058;-75
2022/10/28 06:54:29;;;;;;;12.35;6.72;;;17.30;81.00;;;;;;4826392;29;20472;-76
2022/10/28 06:56:54;;;;;;;13.73;7.68;;;17.30;80.90;;;;;;4827225;29;20050;-79
2022/10/28 06:59:20;;;;;;;14.02;7.57;;;17.20;80.50;;;;;;4826914;29;20368;-74
2022/10/28 07:01:46;;;;;;;11.90;7.63;;;17.20;80.20;;;;;;4809777;29;20109;-71
2022/10/28 07:04:12;;;;;;;13.25;7.13;;;17.20;79.90;;;;;;4824334;29;20101;-75
2022/10/28 07:06:39;;;;;;;10.88;7.22;;;17.20;79.90;;;;;;4809642;29;20471;-75
2022/10/28 07:09:05;;;;;;;11.25;7.68;;;17.10;79.90;;;;;;4826279;29;20490;-75
2022/10/28 07:11:31;;;;;;;13.98;7.93;;;17.10;79.90;;;;;;4827099;29;20050;-74
2022/10/28 07:13:56;;;;;;;11.15;7.03;;;17.10;79.90;;;;;;4826635;29;20053;-73
2022/10/28 07:16:23;;;;;;;11.88;6.78;;;17.10;79.80;;;;;;4826467;29;20491;-75
2022/10/28 07:18:49;;;;;;;12.70;7.43;;;17.10;79.80;;;;;;4826602;29;20061;-77
2022/10/28 07:21:17;;;;;;;12.45;6.93;;;17.10;79.70;;;;;;4826463;29;20440;-75
2022/10/28 07:23:45;;;;;;;12.23;7.30;;;17.10;79.70;;;;;;4826492;29;20139;-75
2022/10/28 07:26:11;;;;;;;14.20;7.65;;;17.10;79.70;;;;;;4826380;29;20046;-75
2022/10/28 07:28:36;;;;;;;11.68;6.75;;;17.10;79.80;;;;;;4826500;29;20153;-73
2022/10/28 07:31:03;;;;;;;11.77;7.15;;;17.10;79.90;;;;;;4826848;29;20501;-74
2022/10/28 07:33:29;;;;;;;13.70;7.00;;;17.10;79.90;;;;;;4810912;29;20058;-74
2022/10/28 07:35:55;;;;;;;12.57;6.57;;;17.10;80.00;;;;;;4826429;29;20057;-77
2022/10/28 07:38:21;;;;;;;10.43;6.45;;;17.10;80.00;;;;;;4826453;29;20050;-78
2022/10/28 07:40:47;;;;;;;12.23;6.75;;;17.10;80.00;;;;;;4826803;29;20118;-75
2022/10/28 07:43:12;;;;;;;15.23;6.78;;;17.10;80.10;;;;;;4825977;29;20061;-75
2022/10/28 07:45:38;;;;;;;11.43;6.78;;;17.10;80.10;;;;;;4826441;29;20042;-75
2022/10/28 07:48:05;;;;;;;14.95;6.75;;;17.10;80.20;;;;;;4810218;29;20494;-74
2022/10/28 07:50:31;;;;;;;18.05;7.32;;;17.10;80.20;;;;;;4826210;29;20089;-74
2022/10/28 07:52:56;;;;;;;10.95;6.25;;;17.10;80.30;;;;;;4810192;29;20093;-74
2022/10/28 07:55:22;;;;;;;15.40;6.28;;;17.10;80.30;;;;;;4825985;29;20050;-74
2022/10/28 07:57:48;;;;;;;15.00;6.35;;;17.10;80.20;;;;;;4811018;29;20360;-74
2022/10/28 08:00:14;;;;;;;16.83;6.85;;;17.20;80.20;;;;;;4826619;29;20097;-74
2022/10/28 08:02:40;;;;;;;9.05;5.93;;;17.10;80.20;;;;;;4826513;29;20054;-74
2022/10/28 08:05:06;;;;;;;12.15;6.18;;;17.20;80.20;;;;;;4826537;29;20145;-74
2022/10/28 08:07:32;;;;;;;12.45;6.90;;;17.20;79.90;;;;;;4825863;29;20058;-74
2022/10/28 08:09:58;;;;;;;12.30;7.22;;;17.20;80.00;;;;;;4810082;29;20061;-73
2022/10/28 08:12:24;;;;;;;16.23;7.03;;;17.10;80.00;;;;;;4810692;29;20061;-74
2022/10/28 08:14:50;;;;;;;12.45;6.65;;;17.10;79.90;;;;;;4810706;29;20129;-74
2022/10/28 08:17:16;;;;;;;14.82;6.90;;;17.10;80.10;;;;;;4825856;29;20154;-74
2022/10/28 08:19:41;;;;;;;12.93;6.57;;;17.10;80.30;;;;;;4825830;29;20129;-75
2022/10/28 08:22:07;;;;;;;11.65;5.97;;;17.00;80.50;;;;;;4828550;29;20486;-75
2022/10/28 08:24:33;;;;;;;11.95;6.55;;;17.00;80.60;;;;;;4829664;29;20046;-74
2022/10/28 08:27:00;;;;;;;13.82;6.60;;;17.00;80.70;;;;;;4829954;29;20135;-75
2022/10/28 08:29:26;;;;;;;14.90;6.35;;;17.10;80.80;;;;;;4829621;29;20118;-74
2022/10/28 08:31:52;;;;;;;13.60;6.68;;;17.10;80.80;;;;;;4829356;29;20054;-75
2022/10/28 08:34:18;;;;;;;13.05;6.45;;;17.10;80.80;;;;;;4829662;29;20456;-76
2022/10/28 08:36:43;;;;;;;13.73;5.93;;;17.10;80.80;;;;;;4814306;29;20091;-76
2022/10/28 08:39:09;;;;;;;14.15;5.57;;;17.10;80.80;;;;;;4813647;29;20456;-75
2022/10/28 08:41:39;;;;;;;15.32;6.75;;;17.20;80.90;;;;;;4829682;29;20054;-75
2022/10/28 08:44:31;;;;;;;14.00;6.10;;;17.10;80.80;;;;;;4829446;29;20042;-76
2022/10/28 08:47:09;;;;;;;14.70;6.93;;;17.20;80.90;;;;;;4829454;29;20091;-77
2022/10/28 08:49:39;;;;;;;15.75;6.28;;;17.20;81.10;;;;;;4829255;29;20086;-77
2022/10/28 08:52:21;;;;;;;11.75;6.10;;;17.20;81.10;;;;;;4828931;29;20062;-76
2022/10/28 08:55:17;;;;;;;15.32;6.65;;;17.20;81.20;;;;;;4797226;29;20062;-78
2022/10/28 08:57:45;;;;;;;8.93;5.88;;;17.20;81.20;;;;;;4817223;29;20472;-78
2022/10/28 09:00:17;;;;;;;15.73;6.13;;;17.20;81.20;;;;;;4828484;29;20476;-76
2022/10/28 09:02:50;;;;;;;16.92;6.72;;;17.30;81.20;;;;;;4828742;29;20062;-79
2022/10/28 09:05:21;;;;;;;14.77;6.32;;;17.30;81.30;;;;;;4828728;29;20054;-78
2022/10/28 09:07:47;;;;;;;12.10;5.80;;;17.30;81.20;;;;;;4821501;29;20083;-77
2022/10/28 09:10:15;;;;;;;10.20;6.43;;;17.30;81.20;;;;;;4810654;29;20055;-76
2022/10/28 09:13:03;;;;;;;11.05;5.72;;;17.40;81.20;;;;;;4810660;29;20467;-77
2022/10/28 09:15:57;;;;;;;10.98;4.90;;;17.40;81.20;;;;;;4810983;29;20055;-77
2022/10/28 09:18:48;;;;;;;12.90;5.33;;;17.40;81.10;;;;;;4819511;29;20058;-77
2022/10/28 09:21:36;;;;;;;10.68;5.15;;;17.40;81.10;;;;;;4826622;29;20162;-76
2022/10/28 09:24:23;;;;;;;15.00;5.90;;;17.40;81.10;;;;;;4828401;29;20526;-76
2022/10/28 09:27:12;;;;;;;11.88;6.07;;;17.40;81.20;;;;;;4828303;29;20452;-76
2022/10/28 09:29:47;;;;;;;18.70;5.22;;;17.40;81.20;;;;;;4828019;29;20452;-76
2022/10/28 09:32:35;;;;;;;9.73;5.00;;;17.40;81.30;;;;;;4827744;29;20069;-76
2022/10/28 09:35:19;;;;;;;14.13;5.10;;;17.40;81.30;;;;;;4829243;29;20195;-77
2022/10/28 09:37:58;;;;;;;9.57;4.57;;;17.40;81.30;;;;;;4828211;29;20468;-76
2022/10/28 09:40:29;;;;;;;13.43;5.35;;;17.40;81.30;;;;;;4828199;29;20364;-75
2022/10/28 09:43:08;;;;;;;12.13;5.22;;;17.40;81.20;;;;;;4828479;29;20054;-82
2022/10/28 09:45:39;;;;;;;11.45;5.40;;;17.40;81.20;;;;;;4827313;29;20062;-80
2022/10/28 09:48:19;;;;;;;10.95;5.25;;;17.40;81.20;;;;;;4821468;29;20047;-80
2022/10/28 09:50:48;;;;;;;14.65;5.68;;;17.40;81.20;;;;;;4810038;29;20065;-80
2022/10/28 09:53:37;;;;;;;11.32;5.90;;;17.40;81.20;;;;;;4824369;29;20047;-83
2022/10/28 09:56:05;;;;;;;12.80;5.85;;;17.40;81.10;;;;;;4824905;29;20361;-83
2022/10/28 09:58:32;;;;;;;12.70;5.25;;;17.40;81.10;;;;;;4799728;29;20511;-80
2022/10/28 10:00:59;;;;;;;11.77;5.32;;;17.40;81.10;;;;;;4809788;29;20047;-82
2022/10/28 10:03:24;;;;;;;11.45;5.30;;;17.40;81.10;;;;;;4808836;29;20132;-83
2022/10/28 10:05:55;;;;;;;11.73;4.78;;;17.40;81.10;;;;;;4809613;29;20063;-83
2022/10/28 10:08:21;;;;;;;11.68;5.53;;;17.40;81.10;;;;;;4824165;29;20137;-82
2022/10/28 10:11:00;;;;;;;8.95;4.90;;;17.40;81.10;;;;;;4824165;29;20043;-82
2022/10/28 10:13:34;;;;;;;9.50;4.47;;;17.40;81.10;;;;;;4811266;29;20086;-81
2022/10/28 10:16:03;;;;;;;;;;;17.50;81.20;;;;;;4812283;29;20057;-83
2022/10/28 10:18:33;;;;;;;9.98;4.30;;;17.40;81.10;;;;;;4826828;29;19936;-82
2022/10/28 10:21:00;;;;;;;8.68;4.72;;;17.40;81.20;;;;;;4811643;29;20096;-83
2022/10/28 10:23:33;;;;;;;11.77;4.38;;;17.40;81.20;;;;;;4793010;29;20059;-81
2022/10/28 10:26:10;;;;;;;9.10;4.60;;;17.50;81.20;;;;;;4794349;29;20069;-81
2022/10/28 10:28:41;;;;;;;12.45;4.60;;;17.50;81.20;;;;;;4793849;29;20058;-82
2022/10/28 10:31:15;;;;;;;10.70;4.63;;;17.50;81.20;;;;;;4808319;29;20054;-82
2022/10/28 10:33:41;;;;;;;8.82;4.45;;;17.50;81.30;;;;;;4809413;29;20491;-82
2022/10/28 10:36:09;;;;;;;10.40;4.55;;;17.50;81.20;;;;;;4827035;29;20046;-83
2022/10/28 10:38:37;;;;;;;10.27;4.82;;;17.50;81.20;;;;;;4826796;29;20086;-82
2022/10/28 10:41:03;;;;;;;8.80;4.60;;;17.50;81.20;;;;;;4811588;29;20046;-81
2022/10/28 10:43:34;;;;;;;13.05;4.38;;;17.50;81.20;;;;;;4796257;29;20048;-82
2022/10/28 10:46:03;;;;;;;8.25;4.63;;;17.50;81.20;;;;;;4808150;29;20532;-82
2022/10/28 10:48:31;;;;;;;8.95;5.10;;;17.50;81.20;;;;;;4808102;29;20427;-80
2022/10/28 10:50:57;;;;;;;9.43;4.00;;;17.50;81.20;;;;;;4808458;29;20117;-80
2022/10/28 10:53:31;;;;;;;8.55;4.10;;;17.50;81.20;;;;;;4825917;29;20043;-81
2022/10/28 10:56:02;;;;;;;8.73;4.25;;;17.50;81.10;;;;;;4795973;29;20146;-82
2022/10/28 10:58:52;;;;;;;6.38;3.58;;;17.50;81.10;;;;;;4827356;29;20380;-82
2022/10/28 11:01:27;;;;;;;9.18;4.43;;;17.50;81.10;;;;;;4826225;29;20137;-81
2022/10/28 11:03:58;;;;;;;9.80;4.10;;;17.50;81.10;;;;;;4793587;29;20386;-83
2022/10/28 11:06:27;;;;;;;7.22;3.83;;;17.50;81.10;;;;;;4808395;29;20051;-83
2022/10/28 11:09:15;;;;;;;9.32;4.20;;;17.50;81.10;;;;;;4822847;29;20126;-80
2022/10/28 11:11:41;;;;;;;9.52;3.90;;;17.60;81.10;;;;;;4823683;29;20123;-82
2022/10/28 11:14:11;;;;;;;7.22;3.85;;;17.50;81.10;;;;;;4810653;29;20442;-82
2022/10/28 11:16:54;;;;;;;8.57;3.90;;;17.60;81.10;;;;;;4796012;29;20058;-82
2022/10/28 11:19:27;;;;;;;5.82;3.35;;;17.60;81.10;;;;;;4810986;29;20485;-81
2022/10/28 11:22:17;;;;;;;8.93;3.60;;;17.50;81.00;;;;;;4808383;29;20053;-82
2022/10/28 11:25:27;;;;;;;6.60;3.70;;;17.50;81.10;;;;;;4808428;29;20054;-81
2022/10/28 11:27:53;;;;;;;5.95;3.20;;;17.60;81.00;;;;;;4803564;29;20063;-83
2022/10/28 11:30:26;;;;;;;9.30;3.92;;;17.60;81.10;;;;;;4808529;29;20066;-82
2022/10/28 11:32:57;;;;;;;9.30;3.77;;;17.60;81.10;;;;;;4825262;29;20361;-81
2022/10/28 11:35:45;;;;;;;6.30;3.28;;;17.60;81.00;;;;;;4825672;29;20291;-83
2022/10/28 11:38:26;;;;;;;8.68;3.47;;;17.60;81.10;;;;;;4810754;29;20054;-83
2022/10/28 11:41:19;;;;;;;7.25;3.83;;;17.60;81.00;;;;;;4810679;29;20119;-83
2022/10/28 11:43:53;;;;;;;6.75;3.75;;;17.60;80.90;;;;;;4810653;29;20054;-80
2022/10/28 11:46:19;;;;;;;6.97;3.72;;;17.60;80.90;;;;;;4792048;29;20064;-80
2022/10/28 11:49:18;;;;;;;8.52;3.75;;;17.60;80.90;;;;;;4807325;29;20153;-80
2022/10/28 11:51:58;;;;;;;5.95;3.50;;;17.60;80.80;;;;;;4807766;29;20046;-82
2022/10/28 11:54:48;;;;;;;8.55;3.80;;;17.60;80.80;;;;;;4825880;29;20054;-82
2022/10/28 11:57:29;;;;;;;7.65;3.42;;;17.60;80.80;;;;;;4795091;29;20442;-84
2022/10/28 12:00:33;;;;;;;6.88;3.40;;;17.60;80.70;;;;;;4810470;29;20062;-81
2022/10/28 12:03:14;;;;;;;;;;;17.60;80.70;;;;;;4809876;29;20487;-82
2022/10/28 12:05:46;;;;;;;7.10;3.47;;;17.60;80.70;;;;;;4810319;29;20253;-81
2022/10/28 12:08:40;;;;;;;4.68;3.13;;;17.60;80.80;;;;;;4810375;29;20142;-83
2022/10/28 12:11:16;;;;;;;6.82;3.05;;;17.60;80.70;;;;;;4824174;29;20061;-83
2022/10/28 12:13:57;;;;;;;7.28;3.35;;;17.60;80.70;;;;;;4807392;29;20077;-82
2022/10/28 12:16:44;;;;;;;6.70;2.92;;;17.60;80.70;;;;;;4822302;29;20051;-82
2022/10/28 12:19:39;;;;;;;6.18;3.58;;;17.60;80.70;;;;;;4808394;29;20191;-82
2022/10/28 12:22:13;;;;;;;6.88;3.33;;;17.60;80.70;;;;;;4824669;29;20051;-81
2022/10/28 12:24:41;;;;;;;;;;;17.60;80.70;;;;;;4810605;29;20198;-82
2022/10/28 12:27:24;;;;;;;4.72;3.05;;;17.60;80.60;;;;;;4825959;29;19925;-80
2022/10/28 12:29:58;;;;;;;5.95;2.97;;;17.60;80.70;;;;;;4825605;29;20070;-82
2022/10/28 12:32:32;;;;;;;5.75;3.20;;;17.60;80.70;;;;;;4791575;29;20050;-82
2022/10/28 12:35:33;;;;;;;6.28;3.17;;;17.60;80.70;;;;;;4791663;29;20046;-80
2022/10/28 12:38:02;;;;;;;4.50;2.92;;;17.60;81.20;;;;;;4792294;29;20058;-82
2022/10/28 12:40:40;;;;;;;5.25;2.95;;;17.60;80.70;;;;;;4792547;29;20357;-84
2022/10/28 12:43:26;;;;;;;5.35;3.25;;;17.60;80.70;;;;;;4806192;29;20078;-84
2022/10/28 12:45:54;;;;;;;7.60;3.17;;;17.60;80.60;;;;;;4809343;29;20471;-82
2022/10/28 12:48:47;;;;;;;5.95;3.30;;;17.70;80.70;;;;;;4809928;29;20046;-82
2022/10/28 12:51:27;;;;;;;6.40;2.70;;;17.70;80.60;;;;;;4794451;29;20372;-81
2022/10/28 12:54:04;;;;;;;6.78;3.03;;;17.70;80.70;;;;;;4806983;29;20047;-80
2022/10/28 12:56:36;;;;;;;6.15;3.10;;;17.70;80.70;;;;;;4807626;29;20438;-81
2022/10/28 12:59:20;;;;;;;4.88;2.75;;;17.70;80.70;;;;;;4777122;29;20378;-82
2022/10/28 13:01:48;;;;;;;4.55;2.60;;;17.70;80.70;;;;;;4811187;29;20046;-81
2022/10/28 13:04:14;;;;;;;5.43;3.30;;;17.70;80.80;;;;;;4825808;29;20133;-83
2022/10/28 13:06:46;;;;;;;4.57;2.63;;;17.70;80.70;;;;;;4809227;29;20047;-81
2022/10/28 13:09:32;;;;;;;4.85;3.45;;;17.70;80.70;;;;;;4828552;29;20421;-82
2022/10/28 13:12:13;;;;;;;4.55;2.83;;;17.70;80.70;;;;;;4807677;29;20051;-82
2022/10/28 13:15:07;;;;;;;4.88;3.13;;;17.70;81.30;;;;;;4824860;29;20066;-84
2022/10/28 13:17:39;;;;;;;9.55;2.80;;;17.70;80.70;;;;;;4810057;29;20087;-82
2022/10/28 13:20:35;;;;;;;5.18;2.95;;;17.70;80.70;;;;;;4825331;29;20059;-81
2022/10/28 13:23:42;;;;;;;6.22;3.08;;;17.70;80.70;;;;;;4822400;29;20046;-82
2022/10/28 13:26:29;;;;;;;4.20;2.78;;;17.70;80.70;;;;;;4813012;29;20357;-82
2022/10/28 13:28:58;;;;;;;4.93;3.20;;;17.70;80.70;;;;;;4812949;29;20463;-82
2022/10/28 13:31:39;;;;;;;5.70;3.13;;;17.70;80.80;;;;;;4811592;29;20058;-81
2022/10/28 13:34:07;;;;;;;4.70;3.13;;;17.70;81.30;;;;;;4827556;29;20543;-82
2022/10/28 13:36:41;;;;;;;4.50;2.88;;;17.70;80.80;;;;;;4827213;29;20054;-81
2022/10/28 13:39:26;;;;;;;;;;;17.70;80.80;;;;;;4813132;29;20054;-82
2022/10/28 13:42:30;;;;;;;4.57;3.05;;;17.70;80.70;;;;;;4827942;29;20240;-82
2022/10/28 13:45:01;;;;;;;4.22;2.67;;;17.70;80.70;;;;;;4754456;30;20052;-81
2022/10/28 13:47:35;;;;;;;3.88;2.78;;;17.70;80.70;;;;;;4801729;29;20066;-82
2022/10/28 13:50:07;;;;;;;4.25;2.72;;;17.70;80.70;;;;;;4828361;29;20054;-82
2022/10/28 13:52:37;;;;;;;4.80;2.53;;;17.70;80.60;;;;;;4819699;29;20123;-81
2022/10/28 13:55:12;;;;;;;6.15;3.53;;;17.70;80.60;;;;;;4824521;29;20137;-81
2022/10/28 13:57:43;;;;;;;4.75;3.03;;;17.70;80.50;;;;;;4810149;29;20065;-81
2022/10/28 14:00:09;;;;;;;5.30;3.50;;;17.70;80.60;;;;;;4809179;29;20059;-81
2022/10/28 14:02:40;;;;;;;5.07;3.17;;;17.70;80.60;;;;;;4811524;29;20056;-81
2022/10/28 14:05:12;;;;;;;4.68;2.97;;;17.80;80.60;;;;;;4828255;29;20046;-82
2022/10/28 14:07:56;;;;;;;4.55;2.92;;;17.70;80.50;;;;;;4812694;29;20072;-83
2022/10/28 14:10:26;;;;;;;3.72;2.88;;;17.70;80.50;;;;;;4828002;29;20090;-82
2022/10/28 14:13:21;;;;;;;5.10;3.08;;;17.70;80.50;;;;;;4823316;29;20043;-81
2022/10/28 14:15:48;;;;;;;4.07;2.60;;;17.70;80.50;;;;;;4824156;29;20051;-81
2022/10/28 14:18:14;;;;;;;6.53;3.58;;;17.70;80.60;;;;;;4823895;29;20480;-81
2022/10/28 14:20:47;;;;;;;7.22;3.13;;;17.70;80.50;;;;;;4808878;29;20050;-82
2022/10/28 14:23:19;;;;;;;4.82;2.97;;;17.70;80.50;;;;;;4825632;29;20207;-81
2022/10/28 14:25:50;;;;;;;5.53;3.17;;;17.80;80.60;;;;;;4796742;29;20058;-83
2022/10/28 14:28:28;;;;;;;4.63;3.05;;;17.70;80.70;;;;;;4812078;29;20046;-82
2022/10/28 14:31:13;;;;;;;4.53;3.00;;;17.70;80.70;;;;;;4796313;29;20066;-83
2022/10/28 14:33:42;;;;;;;4.75;3.28;;;17.70;80.60;;;;;;4808796;29;20430;-80
2022/10/28 14:36:17;;;;;;;5.15;3.25;;;17.80;80.60;;;;;;4778691;29;20043;-82
2022/10/28 14:39:21;;;;;;;4.07;2.90;;;17.80;80.50;;;;;;4794134;29;20157;-82
2022/10/28 14:41:49;;;;;;;4.63;2.83;;;17.70;80.50;;;;;;4797903;29;20456;-81
2022/10/28 14:44:27;;;;;;;6.20;3.08;;;17.70;80.50;;;;;;4811262;29;20058;-80
2022/10/28 14:46:59;;;;;;;3.63;3.10;;;17.70;80.50;;;;;;4796551;29;20054;-81
2022/10/28 14:49:27;;;;;;;5.53;3.13;;;17.70;80.50;;;;;;4827335;29;20085;-82
2022/10/28 14:51:55;;;;;;;5.07;2.85;;;17.70;80.50;;;;;;4806772;29;20123;-83
2022/10/28 14:54:49;;;;;;;4.57;2.92;;;17.70;80.50;;;;;;4808745;29;20060;-74
2022/10/28 14:57:20;;;;;;;6.27;3.77;;;17.80;80.40;;;;;;4806363;29;20071;-77
2022/10/28 14:59:50;;;;;;;8.68;4.25;;;17.70;81.20;;;;;;4823771;29;20065;-77
2022/10/28 15:02:20;;;;;;;10.80;5.00;;;17.70;80.90;;;;;;4809015;29;20353;-76
2022/10/28 15:04:56;;;;;;;10.73;5.03;;;17.70;81.00;;;;;;4823472;29;20054;-78
2022/10/28 15:07:22;;;;;;;10.15;4.35;;;17.70;81.10;;;;;;4808745;29;20058;-81
2022/10/28 15:09:52;;;;;;;8.07;4.22;;;17.70;81.20;;;;;;4808556;29;20055;-76
2022/10/28 15:12:20;;;;;;;10.57;4.20;;;17.70;81.30;;;;;;4815450;29;20046;-76
2022/10/28 15:14:51;;;;;;;8.70;4.05;;;17.70;81.30;;;;;;4826994;29;20183;-76
2022/10/28 15:17:19;;;;;;;7.22;4.22;;;17.70;81.40;;;;;;4827122;29;20054;-76
2022/10/28 15:19:48;;;;;;;12.20;5.47;;;17.70;82.00;;;;;;4827094;29;20051;-74
2022/10/28 15:22:19;;;;;;;12.55;5.68;;;17.70;81.60;;;;;;4821168;29;20051;-76
2022/10/28 15:24:58;;;;;;;14.93;5.47;;;17.70;81.70;;;;;;4808596;29;20072;-73
2022/10/28 15:27:28;;;;;;;16.52;5.80;;;17.80;81.90;;;;;;4808383;29;20059;-73
2022/10/28 15:29:54;;;;;;;15.50;6.32;;;17.70;82.10;;;;;;4807645;29;20073;-75
2022/10/28 15:32:20;;;;;;;18.27;5.95;;;17.70;82.10;;;;;;4814815;29;20054;-76
2022/10/28 15:34:47;;;;;;;17.75;6.43;;;17.70;82.10;;;;;;4825828;29;20047;-76
2022/10/28 15:37:42;;;;;;;23.23;6.63;;;17.70;82.30;;;;;;4826403;29;20046;-74
2022/10/28 15:40:20;;;;;;;24.17;7.68;;;17.70;82.40;;;;;;4795032;29;20472;-73
2022/10/28 15:42:56;;;;;;;19.25;7.22;;;17.70;82.70;;;;;;4816617;29;20046;-72
2022/10/28 15:45:25;;;;;;;21.25;7.13;;;17.80;82.80;;;;;;4822408;29;20054;-72
2022/10/28 15:47:51;;;;;;;21.85;7.10;;;17.70;82.90;;;;;;4808026;29;20540;-72
2022/10/28 15:50:17;;;;;;;21.25;6.72;;;17.80;82.90;;;;;;4808152;29;20392;-74
2022/10/28 15:52:48;;;;;;;19.25;6.97;;;17.80;83.10;;;;;;4816776;29;20051;-74
2022/10/28 15:55:17;;;;;;;20.52;6.70;;;17.80;83.20;;;;;;4826542;29;20054;-75
2022/10/28 15:57:47;;;;;;;21.95;6.85;;;17.80;83.30;;;;;;4826237;29;20042;-73
2022/10/28 16:00:25;;;;;;;15.93;6.70;;;17.80;83.50;;;;;;4826205;29;20121;-74
2022/10/28 16:03:01;;;;;;;15.75;6.05;;;17.80;83.60;;;;;;4813099;29;20133;-73
2022/10/28 16:05:33;;;;;;;16.83;6.45;;;17.90;83.80;;;;;;4807488;29;20093;-74
2022/10/28 16:08:04;;;;;;;16.77;6.65;;;17.80;83.70;;;;;;4807497;29;20457;-72
2022/10/28 16:10:54;;;;;;;15.38;5.75;;;17.80;84.10;;;;;;4807701;29;20468;-72
2022/10/28 16:13:35;;;;;;;21.30;6.20;;;17.80;84.50;;;;;;4823345;29;20121;-73
2022/10/28 16:16:06;;;;;;;18.88;6.18;;;17.80;84.40;;;;;;4826178;29;20046;-73
2022/10/28 16:18:37;;;;;;;19.15;6.07;;;17.80;84.50;;;;;;4826368;29;20050;-73
2022/10/28 16:21:03;;;;;;;17.13;6.30;;;17.80;84.70;;;;;;4826120;29;20129;-72
2022/10/28 16:23:38;;;;;;;16.17;5.38;;;17.80;84.70;;;;;;4808881;29;20062;-73
2022/10/28 16:26:04;;;;;;;13.57;5.55;;;17.80;84.80;;;;;;4807958;29;20116;-72
2022/10/28 16:28:31;;;;;;;21.60;5.15;;;17.80;84.90;;;;;;4807931;29;20130;-72
2022/10/28 16:30:59;;;;;;;18.90;6.00;;;17.80;84.90;;;;;;4807579;29;20059;-73
2022/10/28 16:33:34;;;;;;;16.08;5.75;;;17.80;85.00;;;;;;4823474;29;20480;-73
2022/10/28 16:36:01;;;;;;;14.45;6.13;;;17.80;85.10;;;;;;4825940;29;20058;-73
2022/10/28 16:38:29;;;;;;;15.38;5.40;;;17.80;85.00;;;;;;4825951;29;20058;-74
2022/10/28 16:40:57;;;;;;;18.85;5.65;;;17.80;85.10;;;;;;4826121;29;20133;-73
2022/10/28 16:43:24;;;;;;;18.60;6.03;;;17.80;85.00;;;;;;4814424;29;20062;-73
2022/10/28 16:45:52;;;;;;;21.70;6.70;;;17.90;84.90;;;;;;4811915;29;20043;-73
2022/10/28 16:48:20;;;;;;;17.73;5.60;;;17.90;84.40;;;;;;4811065;29;20097;-73
2022/10/28 16:50:55;;;;;;;23.38;6.50;;;17.90;84.60;;;;;;4811246;29;20527;-74
2022/10/28 16:53:21;;;;;;;20.33;5.25;;;17.90;83.80;;;;;;4812569;29;20055;-73
2022/10/28 18:12:05;;;;;;;15.32;5.03;;;17.90;83.00;;;;;;5869194;23;20024;-71
2022/10/28 18:14:31;;;;;;;17.70;5.32;;;17.90;82.60;;;;;;4844027;29;20150;-71
2022/10/28 18:16:57;;;;;;;19.45;5.07;;;17.90;82.70;;;;;;4846141;29;20129;-71
2022/10/28 18:19:22;;;;;;;15.70;6.00;;;17.90;82.90;;;;;;4846713;29;20133;-71
2022/10/28 18:21:48;;;;;;;17.10;5.88;;;17.90;83.00;;;;;;4845499;29;20421;-72
2022/10/28 18:24:14;;;;;;;20.00;5.88;;;17.90;83.10;;;;;;4845282;29;20061;-72
2022/10/28 18:26:40;;;;;;;23.67;6.25;;;17.80;83.20;;;;;;4828827;29;20367;-71
2022/10/28 18:29:12;;;;;;;21.25;5.40;;;17.80;83.30;;;;;;4845303;29;20042;-71
2022/10/28 18:31:39;;;;;;;18.50;6.15;;;17.90;83.50;;;;;;4843029;29;20049;-72
2022/10/28 18:34:05;;;;;;;22.70;6.18;;;17.80;83.50;;;;;;4845965;29;20053;-72
2022/10/28 18:36:35;;;;;;;24.33;5.53;;;17.80;83.50;;;;;;4845802;29;20104;-72
2022/10/28 18:39:03;;;;;;;28.45;5.88;;;17.90;83.50;;;;;;4845042;29;20057;-72
2022/10/28 18:41:30;;;;;;;19.95;6.10;;;17.90;83.50;;;;;;4844842;29;20081;-72
2022/10/28 18:43:59;;;;;;;20.52;6.45;;;17.80;83.50;;;;;;4845137;29;20371;-73
2022/10/28 18:46:26;;;;;;;20.25;5.57;;;17.80;83.50;;;;;;4828887;29;20379;-72
2022/10/28 18:48:51;;;;;;;21.10;5.28;;;17.90;83.50;;;;;;4842164;29;20050;-72
2022/10/28 18:51:17;;;;;;;18.95;5.50;;;17.80;83.50;;;;;;4845012;29;20129;-72
2022/10/28 18:53:46;;;;;;;20.92;5.60;;;17.80;83.50;;;;;;4845041;29;20045;-72
2022/10/28 18:56:20;;;;;;;18.35;5.22;;;17.80;83.50;;;;;;4844457;29;20074;-72
2022/10/28 18:58:48;;;;;;;22.88;6.25;;;17.80;83.40;;;;;;4844793;29;20387;-72
2022/10/28 19:01:24;;;;;;;19.60;5.95;;;17.90;83.50;;;;;;4842520;29;20081;-72
2022/10/28 19:03:55;;;;;;;19.05;5.75;;;17.90;83.40;;;;;;4844854;29;20082;-72
2022/10/28 19:06:22;;;;;;;20.50;5.82;;;17.80;83.40;;;;;;4844724;29;20053;-72
2022/10/28 19:08:53;;;;;;;19.17;6.03;;;17.80;83.40;;;;;;4844686;29;20050;-71
2022/10/28 19:11:19;;;;;;;22.40;6.10;;;17.90;83.40;;;;;;4844731;29;20049;-71
2022/10/28 19:13:45;;;;;;;20.67;5.55;;;17.90;83.40;;;;;;4844409;29;20122;-71
2022/10/28 19:16:11;;;;;;;19.27;5.88;;;17.80;83.30;;;;;;4844733;29;20121;-72
2022/10/28 19:18:37;;;;;;;20.52;5.93;;;17.80;83.30;;;;;;4844330;29;20058;-71
2022/10/28 19:21:03;;;;;;;23.35;5.45;;;17.80;83.30;;;;;;4844049;29;20044;-71
2022/10/28 19:23:31;;;;;;;19.75;5.95;;;17.90;83.40;;;;;;4844320;29;20129;-73
2022/10/28 19:25:57;;;;;;;24.38;6.38;;;17.80;83.30;;;;;;4844310;29;20073;-71
2022/10/28 19:28:23;;;;;;;18.98;5.63;;;17.80;83.30;;;;;;4844447;29;20053;-71
2022/10/28 19:30:49;;;;;;;24.63;5.90;;;17.80;83.30;;;;;;4843950;29;20379;-71
2022/10/28 19:33:15;;;;;;;20.67;5.97;;;17.80;83.30;;;;;;4844196;29;20183;-71
2022/10/28 19:35:40;;;;;;;26.70;6.20;;;17.80;83.30;;;;;;4844036;29;20046;-72
2022/10/28 19:38:06;;;;;;;21.52;6.55;;;17.80;83.30;;;;;;4843905;29;20073;-73
2022/10/28 19:40:32;;;;;;;22.92;6.30;;;17.80;83.30;;;;;;4844142;29;20124;-72
2022/10/28 19:42:57;;;;;;;21.85;6.70;;;17.80;83.30;;;;;;4844193;29;20129;-72
2022/10/28 19:45:23;;;;;;;18.55;5.18;;;17.80;83.20;;;;;;4844197;29;20061;-72
2022/10/28 19:47:49;;;;;;;20.65;5.72;;;17.80;83.20;;;;;;4843953;29;20069;-71
2022/10/28 19:50:15;;;;;;;19.42;5.63;;;17.80;83.20;;;;;;4843712;29;20053;-72
2022/10/28 19:52:43;;;;;;;21.85;6.72;;;17.80;83.20;;;;;;4843911;29;20060;-72